Time;durP1;ratioP1;P1;durP2;ratioP2;P2;SDS_P1;SDS_P2;PMS_P1;PMS_P2;Temp;Humidity;BMP_temperature;BMP_pressure;BME280_temperature;BME280_humidity;BME280_pressure;Samples;Min_cycle;Max_cycle;Signal;HPM_P1;HPM_P2
2022/11/28 00:02:11;;;;;;;8.23;4.07;;;6.70;99.90;;;;;;5008210;28;20208;-67
2022/11/28 00:04:39;;;;;;;8.73;4.30;;;6.70;99.90;;;;;;5029504;28;20201;-67
2022/11/28 00:07:06;;;;;;;6.87;3.67;;;6.70;99.90;;;;;;5010611;28;20201;-67
2022/11/28 00:09:33;;;;;;;4.73;3.77;;;6.70;99.90;;;;;;5021315;28;20218;-67
2022/11/28 00:12:00;;;;;;;6.23;4.27;;;6.60;99.90;;;;;;5000359;28;21024;-67
2022/11/28 00:14:27;;;;;;;8.17;4.23;;;6.60;99.90;;;;;;5017788;28;20226;-66
2022/11/28 00:16:53;;;;;;;8.07;4.60;;;6.60;99.90;;;;;;4993070;28;20229;-67
2022/11/28 00:19:20;;;;;;;7.93;4.67;;;6.60;99.90;;;;;;5025144;28;20202;-67
2022/11/28 00:21:48;;;;;;;6.93;4.07;;;6.60;99.90;;;;;;5011688;28;20224;-67
2022/11/28 00:24:15;;;;;;;7.30;4.47;;;6.60;99.90;;;;;;5009345;28;20199;-67
2022/11/28 00:26:42;;;;;;;5.60;3.67;;;6.50;99.90;;;;;;4997402;28;20205;-68
2022/11/28 00:29:09;;;;;;;9.23;4.27;;;6.60;99.90;;;;;;5023514;28;20205;-67
2022/11/28 00:31:41;;;;;;;6.63;4.47;;;6.60;99.90;;;;;;4998322;28;20201;-67
2022/11/28 00:34:08;;;;;;;6.17;3.93;;;6.60;99.90;;;;;;5021326;28;20298;-67
2022/11/28 00:36:35;;;;;;;7.20;4.00;;;6.50;99.90;;;;;;5014188;28;20830;-68
2022/11/28 00:39:04;;;;;;;9.13;4.70;;;6.50;99.90;;;;;;5022307;28;20209;-67
2022/11/28 00:41:34;;;;;;;6.73;3.87;;;6.50;99.90;;;;;;5017115;28;20216;-68
2022/11/28 00:44:01;;;;;;;5.87;3.93;;;6.50;99.90;;;;;;5022431;28;20205;-68
2022/11/28 00:46:28;;;;;;;5.90;3.97;;;6.60;99.90;;;;;;5016756;28;20549;-68
2022/11/28 00:48:57;;;;;;;5.60;3.90;;;6.50;99.90;;;;;;4998526;28;20309;-68
2022/11/28 00:51:25;;;;;;;5.77;4.10;;;6.50;99.90;;;;;;5016199;28;20209;-67
2022/11/28 00:53:54;;;;;;;6.63;4.07;;;6.50;99.90;;;;;;5007117;28;20323;-65
2022/11/28 00:56:24;;;;;;;6.63;4.10;;;6.50;99.90;;;;;;5020816;28;20216;-66
2022/11/28 00:58:51;;;;;;;5.80;3.93;;;6.50;99.90;;;;;;5017796;28;20212;-65
2022/11/28 01:01:20;;;;;;;8.73;4.10;;;6.40;99.90;;;;;;5025961;28;20194;-67
2022/11/28 01:03:48;;;;;;;8.00;4.27;;;6.50;99.90;;;;;;4996338;28;21108;-66
2022/11/28 01:06:21;;;;;;;5.27;4.07;;;6.50;99.90;;;;;;5020495;28;20694;-65
2022/11/28 01:08:48;;;;;;;7.80;4.23;;;6.50;99.90;;;;;;5012383;28;20205;-66
2022/11/28 01:11:15;;;;;;;6.27;3.77;;;6.50;99.90;;;;;;5012252;28;20247;-65
2022/11/28 01:13:43;;;;;;;8.17;4.30;;;6.50;99.90;;;;;;5012213;28;20228;-65
2022/11/28 01:16:10;;;;;;;7.77;4.20;;;6.50;99.90;;;;;;5021491;28;20201;-66
2022/11/28 01:18:37;;;;;;;5.50;3.90;;;6.50;99.90;;;;;;4993643;28;20207;-67
2022/11/28 01:21:05;;;;;;;5.27;4.10;;;6.50;99.90;;;;;;5026182;28;20197;-68
2022/11/28 01:23:32;;;;;;;9.33;4.10;;;6.50;99.90;;;;;;5009493;28;21010;-66
2022/11/28 01:26:00;;;;;;;7.03;3.93;;;6.50;99.90;;;;;;5021646;28;21551;-67
2022/11/28 01:28:27;;;;;;;6.13;3.93;;;6.50;99.90;;;;;;5015124;28;20206;-64
2022/11/28 01:30:55;;;;;;;9.60;4.43;;;6.50;99.90;;;;;;5005164;28;20194;-65
2022/11/28 01:33:22;;;;;;;9.43;4.73;;;6.50;99.90;;;;;;5020254;28;20207;-65
2022/11/28 01:35:55;;;;;;;11.17;4.50;;;6.50;99.90;;;;;;4995332;28;20214;-65
2022/11/28 01:38:22;;;;;;;8.27;4.47;;;6.40;99.90;;;;;;5015261;28;20204;-65
2022/11/28 01:40:49;;;;;;;6.03;3.67;;;6.40;99.90;;;;;;5013115;28;20204;-65
2022/11/28 01:43:16;;;;;;;5.33;3.93;;;6.40;99.90;;;;;;5025167;28;20216;-66
2022/11/28 01:45:43;;;;;;;9.07;4.07;;;6.40;99.90;;;;;;5016529;28;20215;-65
2022/11/28 01:48:15;;;;;;;9.10;4.47;;;6.40;99.90;;;;;;5021670;28;20196;-65
2022/11/28 01:50:44;;;;;;;9.43;4.50;;;6.40;99.90;;;;;;4994625;28;20213;-65
2022/11/28 01:53:13;;;;;;;8.30;4.53;;;6.40;99.90;;;;;;5017095;28;20294;-64
2022/11/28 01:55:52;;;;;;;6.10;4.23;;;6.30;99.90;;;;;;5012220;28;20209;-65
2022/11/28 01:58:19;;;;;;;5.17;3.67;;;6.30;99.90;;;;;;5022799;28;20203;-65
2022/11/28 02:00:46;;;;;;;6.60;4.27;;;6.40;99.90;;;;;;5010326;28;20201;-65
2022/11/28 02:03:19;;;;;;;6.20;4.27;;;6.30;99.90;;;;;;5023028;28;20205;-65
2022/11/28 02:05:48;;;;;;;7.57;4.07;;;6.30;99.90;;;;;;4995757;28;20217;-65
2022/11/28 02:08:15;;;;;;;6.20;3.73;;;6.30;99.90;;;;;;5016362;28;20202;-65
2022/11/28 02:11:00;;;;;;;9.90;4.20;;;6.30;99.90;;;;;;5013974;28;20228;-66
2022/11/28 02:13:38;;;;;;;8.90;4.37;;;6.30;99.90;;;;;;5017949;28;20531;-65
2022/11/28 02:16:16;;;;;;;9.37;3.80;;;6.30;99.90;;;;;;5001730;28;20706;-65
2022/11/28 02:18:58;;;;;;;5.97;3.80;;;6.30;99.90;;;;;;5023735;28;20920;-65
2022/11/28 02:21:35;;;;;;;5.77;4.20;;;6.30;99.90;;;;;;4999090;28;20196;-65
2022/11/28 02:24:38;;;;;;;6.93;3.83;;;6.40;99.90;;;;;;5018023;28;20204;-65
2022/11/28 02:27:32;;;;;;;6.37;3.57;;;6.40;99.90;;;;;;5002274;28;20213;-65
2022/11/28 02:30:06;;;;;;;5.43;3.60;;;6.40;99.90;;;;;;5018118;28;20234;-65
2022/11/28 02:33:00;;;;;;;5.80;3.60;;;6.40;99.90;;;;;;5014671;28;20203;-67
2022/11/28 02:35:35;;;;;;;4.97;3.63;;;6.40;99.90;;;;;;4994252;28;20232;-65
2022/11/28 02:38:09;;;;;;;7.57;4.37;;;6.40;99.90;;;;;;5011209;28;20677;-65
2022/11/28 02:40:40;;;;;;;5.20;3.50;;;6.40;99.90;;;;;;5016252;28;20810;-65
2022/11/28 02:43:16;;;;;;;7.90;3.70;;;6.40;99.90;;;;;;5009430;28;20209;-65
2022/11/28 02:45:50;;;;;;;4.83;3.50;;;6.40;99.90;;;;;;5027090;28;20205;-65
2022/11/28 02:48:26;;;;;;;4.73;3.80;;;6.30;99.90;;;;;;5007496;28;20209;-65
2022/11/28 02:50:58;;;;;;;5.60;3.30;;;6.30;99.90;;;;;;5004043;28;20239;-65
2022/11/28 02:53:30;;;;;;;6.17;3.57;;;6.30;99.90;;;;;;5025696;28;20224;-68
2022/11/28 02:55:57;;;;;;;4.63;3.70;;;6.30;99.90;;;;;;5032226;28;20305;-66
2022/11/28 02:58:24;;;;;;;5.80;3.60;;;6.30;99.90;;;;;;5016050;28;20430;-65
2022/11/28 03:00:52;;;;;;;6.43;3.50;;;6.30;99.90;;;;;;5023941;28;20605;-64
2022/11/28 03:03:48;;;;;;;5.07;3.93;;;6.30;99.90;;;;;;5013079;28;20674;-65
2022/11/28 03:06:26;;;;;;;5.60;3.67;;;6.30;99.90;;;;;;4988828;28;20205;-65
2022/11/28 03:09:05;;;;;;;11.00;3.73;;;6.30;99.90;;;;;;5023091;28;20201;-64
2022/11/28 03:11:45;;;;;;;5.53;3.17;;;6.30;99.90;;;;;;5029628;28;20216;-65
2022/11/28 03:14:23;;;;;;;7.53;4.10;;;6.30;99.90;;;;;;5009994;28;21030;-65
2022/11/28 03:16:59;;;;;;;5.77;3.30;;;6.30;99.90;;;;;;5024475;28;20201;-65
2022/11/28 03:19:33;;;;;;;5.07;3.83;;;6.30;99.90;;;;;;5008572;28;20197;-66
2022/11/28 03:22:09;;;;;;;7.20;4.10;;;6.30;99.90;;;;;;4996421;28;20707;-65
2022/11/28 03:24:41;;;;;;;7.43;3.83;;;6.30;99.90;;;;;;5027348;28;20197;-65
2022/11/28 03:27:13;;;;;;;6.80;3.60;;;6.30;99.90;;;;;;5017003;28;20216;-65
2022/11/28 03:29:44;;;;;;;4.73;3.60;;;6.30;99.90;;;;;;5014087;28;20226;-65
2022/11/28 03:32:16;;;;;;;5.43;3.73;;;6.40;99.90;;;;;;5021316;28;20208;-65
2022/11/28 03:34:49;;;;;;;6.30;4.00;;;6.40;99.90;;;;;;5010093;28;20322;-64
2022/11/28 03:37:20;;;;;;;5.87;3.70;;;6.40;99.90;;;;;;4993222;28;20754;-66
2022/11/28 03:39:51;;;;;;;7.17;4.30;;;6.40;99.90;;;;;;5021164;28;20209;-65
2022/11/28 03:42:22;;;;;;;5.30;3.57;;;6.30;99.90;;;;;;5022747;28;20357;-66
2022/11/28 03:44:55;;;;;;;6.47;3.77;;;6.30;99.90;;;;;;5011009;28;20216;-65
2022/11/28 03:47:24;;;;;;;4.53;3.93;;;6.30;99.90;;;;;;5028191;28;20686;-65
2022/11/28 03:49:57;;;;;;;6.73;4.17;;;6.30;99.90;;;;;;5014187;28;20212;-65
2022/11/28 03:52:28;;;;;;;5.90;3.87;;;6.30;99.90;;;;;;4993917;28;20205;-66
2022/11/28 03:54:59;;;;;;;7.10;3.97;;;6.40;99.90;;;;;;5027763;28;20235;-66
2022/11/28 03:57:34;;;;;;;5.40;3.47;;;6.30;99.90;;;;;;5022940;28;20202;-66
2022/11/28 04:00:06;;;;;;;7.07;4.00;;;6.40;99.90;;;;;;5013190;28;20204;-66
2022/11/28 04:02:37;;;;;;;4.47;3.30;;;6.40;99.90;;;;;;5025440;28;20258;-66
2022/11/28 04:05:14;;;;;;;5.17;3.97;;;6.40;99.90;;;;;;5012904;28;20881;-66
2022/11/28 04:07:46;;;;;;;7.27;3.50;;;6.40;99.90;;;;;;5024491;28;20217;-66
2022/11/28 04:10:18;;;;;;;4.53;3.17;;;6.30;99.90;;;;;;4992224;28;20215;-65
2022/11/28 04:12:54;;;;;;;9.93;4.07;;;6.30;99.90;;;;;;5023206;28;20200;-65
2022/11/28 04:15:30;;;;;;;4.80;3.63;;;6.40;99.90;;;;;;5007000;28;20326;-66
2022/11/28 04:18:02;;;;;;;5.73;4.00;;;6.40;99.90;;;;;;5012939;28;20217;-66
2022/11/28 04:20:36;;;;;;;5.77;3.63;;;6.30;99.90;;;;;;5010966;28;20228;-66
2022/11/28 04:23:08;;;;;;;7.77;4.43;;;6.30;99.90;;;;;;5009121;28;20229;-66
2022/11/28 04:25:39;;;;;;;5.00;3.90;;;6.30;99.90;;;;;;4985599;28;20853;-65
2022/11/28 04:28:11;;;;;;;4.23;3.60;;;6.30;99.90;;;;;;4989217;28;20877;-66
2022/11/28 04:30:39;;;;;;;7.07;3.93;;;6.30;99.90;;;;;;5031718;28;20235;-66
2022/11/28 04:33:09;;;;;;;6.60;3.83;;;6.30;99.90;;;;;;4997720;28;20216;-66
2022/11/28 04:35:41;;;;;;;7.83;4.03;;;6.30;99.90;;;;;;5012444;28;20689;-66
2022/11/28 04:38:11;;;;;;;5.80;3.70;;;6.30;99.90;;;;;;4999253;28;21823;-66
2022/11/28 04:40:43;;;;;;;5.27;3.60;;;6.30;99.90;;;;;;4992003;28;20561;-66
2022/11/28 04:43:17;;;;;;;6.53;4.07;;;6.30;99.90;;;;;;5013724;28;20201;-68
2022/11/28 04:45:48;;;;;;;5.70;3.80;;;6.30;99.90;;;;;;5009802;28;20228;-66
2022/11/28 04:48:15;;;;;;;4.50;3.50;;;6.20;99.90;;;;;;4999624;28;20231;-66
2022/11/28 04:50:49;;;;;;;6.10;4.50;;;6.30;99.90;;;;;;5003022;28;20231;-66
2022/11/28 04:53:20;;;;;;;5.30;3.83;;;6.30;99.90;;;;;;5002808;28;20229;-67
2022/11/28 04:55:52;;;;;;;8.53;4.17;;;6.30;99.90;;;;;;4994450;28;20236;-66
2022/11/28 04:58:22;;;;;;;5.63;4.17;;;6.30;99.90;;;;;;5001741;28;20222;-66
2022/11/28 05:00:52;;;;;;;6.43;3.90;;;6.30;99.90;;;;;;5021459;28;20217;-66
2022/11/28 05:03:20;;;;;;;6.00;4.50;;;6.30;99.90;;;;;;5000790;28;20212;-67
2022/11/28 05:05:50;;;;;;;5.30;3.83;;;6.30;99.90;;;;;;5023750;28;20209;-67
2022/11/28 05:08:18;;;;;;;6.10;4.07;;;6.30;99.90;;;;;;5005721;28;20219;-66
2022/11/28 05:10:45;;;;;;;7.83;4.50;;;6.30;99.90;;;;;;5020762;22;20767;-66
2022/11/28 05:13:15;;;;;;;6.60;4.77;;;6.30;99.90;;;;;;5051571;28;20242;-67
2022/11/28 05:15:42;;;;;;;6.00;4.27;;;6.30;99.90;;;;;;5049227;28;20235;-67
2022/11/28 05:18:09;;;;;;;9.40;4.93;;;6.30;99.90;;;;;;5035883;28;20238;-67
2022/11/28 05:20:37;;;;;;;6.63;4.37;;;6.30;99.90;;;;;;5044459;28;20277;-67
2022/11/28 05:23:05;;;;;;;7.40;4.20;;;6.40;99.90;;;;;;5016583;28;20742;-66
2022/11/28 05:25:33;;;;;;;8.70;4.57;;;6.30;99.90;;;;;;5033952;28;20235;-66
2022/11/28 05:27:59;;;;;;;8.20;4.40;;;6.30;99.90;;;;;;5015964;28;20224;-67
2022/11/28 05:30:26;;;;;;;6.10;4.37;;;6.40;99.90;;;;;;5056364;28;20476;-67
2022/11/28 05:32:53;;;;;;;6.30;4.53;;;6.40;99.90;;;;;;5043376;28;20227;-67
2022/11/28 05:35:20;;;;;;;9.13;4.97;;;6.30;99.90;;;;;;5049581;28;20241;-67
2022/11/28 05:37:46;;;;;;;6.53;4.50;;;6.40;99.90;;;;;;5054713;28;20204;-66
2022/11/28 05:40:15;;;;;;;7.10;4.30;;;6.40;99.90;;;;;;5047314;28;20220;-66
2022/11/28 05:42:41;;;;;;;5.87;4.17;;;6.40;99.90;;;;;;5010004;28;20231;-66
2022/11/28 05:45:09;;;;;;;6.57;4.03;;;6.40;99.90;;;;;;5055333;28;20223;-66
2022/11/28 05:47:36;;;;;;;9.97;4.20;;;6.40;99.90;;;;;;5042096;28;20216;-66
2022/11/28 05:50:03;;;;;;;7.03;4.40;;;6.40;99.90;;;;;;5042071;28;20234;-67
2022/11/28 05:52:31;;;;;;;6.93;4.27;;;6.40;99.90;;;;;;5046805;28;20653;-65
2022/11/28 05:54:58;;;;;;;7.30;4.80;;;6.40;99.90;;;;;;5048746;28;20228;-66
2022/11/28 05:57:28;;;;;;;7.03;4.17;;;6.30;99.90;;;;;;5026472;28;20240;-66
2022/11/28 05:59:56;;;;;;;8.57;4.13;;;6.30;99.90;;;;;;5021023;28;20231;-66
2022/11/28 06:02:23;;;;;;;5.83;4.23;;;6.30;99.90;;;;;;5040796;28;20227;-66
2022/11/28 06:04:49;;;;;;;5.50;4.03;;;6.30;99.90;;;;;;5029454;28;20226;-66
2022/11/28 06:07:17;;;;;;;6.07;4.27;;;6.30;99.90;;;;;;5033485;28;20216;-66
2022/11/28 06:09:44;;;;;;;6.80;4.63;;;6.40;99.90;;;;;;5057513;28;20227;-66
2022/11/28 06:12:11;;;;;;;6.33;4.40;;;6.40;99.90;;;;;;5067465;28;21395;-66
2022/11/28 06:14:39;;;;;;;6.20;4.37;;;6.40;99.90;;;;;;5049694;27;20241;-66
2022/11/28 06:17:06;;;;;;;6.00;4.80;;;6.40;99.90;;;;;;5063993;27;20220;-67
2022/11/28 06:19:33;;;;;;;9.77;4.90;;;6.40;99.90;;;;;;5064873;27;20216;-66
2022/11/28 06:21:59;;;;;;;6.83;4.30;;;6.40;99.90;;;;;;5095967;27;20203;-67
2022/11/28 06:24:26;;;;;;;5.97;4.40;;;6.40;99.90;;;;;;5082666;27;20195;-67
2022/11/28 06:26:53;;;;;;;8.33;4.40;;;6.30;99.90;;;;;;5090060;27;20333;-67
2022/11/28 06:29:20;;;;;;;6.23;4.17;;;6.30;99.90;;;;;;5062352;27;20320;-67
2022/11/28 06:31:48;;;;;;;5.63;4.27;;;6.30;99.90;;;;;;5088365;28;20198;-67
2022/11/28 06:34:15;;;;;;;8.53;4.13;;;6.30;99.90;;;;;;5083738;28;20208;-67
2022/11/28 06:36:43;;;;;;;5.07;4.00;;;6.30;99.90;;;;;;5081537;28;20215;-67
2022/11/28 06:39:12;;;;;;;8.00;5.00;;;6.40;99.90;;;;;;5089439;27;20195;-67
2022/11/28 06:41:39;;;;;;;6.30;4.33;;;6.40;99.90;;;;;;5084779;27;20210;-66
2022/11/28 06:44:05;;;;;;;10.47;4.80;;;6.40;99.90;;;;;;5067598;27;20256;-67
2022/11/28 06:46:32;;;;;;;6.60;4.57;;;6.40;99.90;;;;;;5080776;28;20204;-66
2022/11/28 06:49:00;;;;;;;7.70;4.80;;;6.30;99.90;;;;;;5089986;27;20210;-67
2022/11/28 06:51:27;;;;;;;11.40;4.90;;;6.40;99.90;;;;;;5078286;27;20584;-67
2022/11/28 06:53:54;;;;;;;7.27;5.17;;;6.40;99.90;;;;;;5085992;27;20241;-66
2022/11/28 06:56:21;;;;;;;8.27;4.83;;;6.40;99.90;;;;;;5089346;27;20227;-67
2022/11/28 06:58:53;;;;;;;9.13;5.20;;;6.40;99.90;;;;;;5083749;27;20209;-66
2022/11/28 07:01:21;;;;;;;8.37;4.90;;;6.30;99.90;;;;;;5057177;27;20218;-66
2022/11/28 07:03:49;;;;;;;8.93;4.80;;;6.40;99.90;;;;;;5084511;28;21067;-66
2022/11/28 07:06:19;;;;;;;11.43;5.33;;;6.40;99.90;;;;;;5074403;27;20687;-66
2022/11/28 07:08:46;;;;;;;9.37;5.63;;;6.30;99.90;;;;;;5068058;27;20597;-67
2022/11/28 07:11:15;;;;;;;9.80;5.70;;;6.30;99.90;;;;;;5086303;27;20295;-66
2022/11/28 07:13:44;;;;;;;7.83;5.17;;;6.40;99.90;;;;;;5079237;27;20209;-67
2022/11/28 07:16:15;;;;;;;8.63;5.33;;;6.40;99.90;;;;;;5057351;28;20231;-67
2022/11/28 07:18:41;;;;;;;6.73;4.87;;;6.40;99.90;;;;;;5087016;27;20203;-68
2022/11/28 07:21:08;;;;;;;8.77;5.40;;;6.40;99.90;;;;;;5090088;27;20657;-68
2022/11/28 07:23:36;;;;;;;10.17;5.43;;;6.40;99.90;;;;;;5075609;27;20668;-67
2022/11/28 07:26:05;;;;;;;9.53;5.50;;;6.40;99.90;;;;;;5084826;27;20245;-66
2022/11/28 07:28:32;;;;;;;8.53;5.07;;;6.40;99.90;;;;;;5076123;27;20211;-68
2022/11/28 07:31:01;;;;;;;6.63;4.43;;;6.40;99.90;;;;;;5061115;27;20742;-66
2022/11/28 07:33:28;;;;;;;8.43;5.47;;;6.40;99.90;;;;;;5085981;27;20288;-67
2022/11/28 07:35:59;;;;;;;5.70;4.50;;;6.40;99.90;;;;;;5086939;27;20232;-66
2022/11/28 07:38:25;;;;;;;9.07;5.33;;;6.50;99.90;;;;;;5069149;27;20286;-67
2022/11/28 07:40:54;;;;;;;7.90;5.23;;;6.40;99.90;;;;;;5086191;27;20238;-66
2022/11/28 07:43:20;;;;;;;11.07;5.90;;;6.50;99.90;;;;;;5078708;27;20242;-66
2022/11/28 07:45:47;;;;;;;6.97;5.03;;;6.50;99.90;;;;;;5060676;27;20237;-67
2022/11/28 07:48:14;;;;;;;7.70;4.93;;;6.50;99.90;;;;;;5087518;27;20227;-66
2022/11/28 07:50:41;;;;;;;9.23;5.23;;;6.50;99.90;;;;;;5079627;27;20223;-66
2022/11/28 07:53:07;;;;;;;7.83;5.30;;;6.50;99.90;;;;;;5072406;27;20234;-66
2022/11/28 07:55:35;;;;;;;7.93;5.40;;;6.60;99.90;;;;;;5066216;27;20231;-66
2022/11/28 07:58:04;;;;;;;8.03;5.10;;;6.60;99.90;;;;;;5083714;27;20220;-66
2022/11/28 08:00:32;;;;;;;9.87;5.40;;;6.50;99.90;;;;;;5060689;27;20204;-67
2022/11/28 08:02:59;;;;;;;9.60;5.70;;;6.60;99.90;;;;;;5061552;27;20206;-67
2022/11/28 08:05:26;;;;;;;8.13;5.10;;;6.60;99.90;;;;;;5076301;28;20203;-67
2022/11/28 08:07:52;;;;;;;7.63;5.40;;;6.60;99.90;;;;;;5083985;27;20403;-67
2022/11/28 08:10:19;;;;;;;10.00;5.60;;;6.60;99.90;;;;;;5073465;27;20240;-67
2022/11/28 08:12:46;;;;;;;6.70;4.90;;;6.60;99.90;;;;;;5086893;27;20656;-66
2022/11/28 08:15:14;;;;;;;6.83;4.97;;;6.60;99.90;;;;;;5076161;28;20205;-67
2022/11/28 08:17:41;;;;;;;8.87;5.37;;;6.50;99.90;;;;;;5046395;28;20204;-68
2022/11/28 08:20:09;;;;;;;8.17;5.23;;;6.50;99.90;;;;;;5075680;27;20203;-67
2022/11/28 08:22:36;;;;;;;9.07;5.97;;;6.50;99.90;;;;;;5079880;27;20191;-67
2022/11/28 08:25:02;;;;;;;8.17;5.40;;;6.50;99.90;;;;;;5075076;27;21235;-67
2022/11/28 08:27:29;;;;;;;7.87;5.23;;;6.50;99.90;;;;;;5080385;27;20207;-67
2022/11/28 08:29:56;;;;;;;8.50;5.30;;;6.60;99.90;;;;;;5077550;27;20206;-67
2022/11/28 08:32:24;;;;;;;8.87;5.50;;;6.60;99.90;;;;;;5056100;27;20206;-68
2022/11/28 08:34:51;;;;;;;10.83;6.03;;;6.60;99.90;;;;;;5077740;27;20717;-67
2022/11/28 08:37:18;;;;;;;8.93;5.47;;;6.60;99.90;;;;;;5075076;27;20224;-68
2022/11/28 08:39:45;;;;;;;7.00;5.40;;;6.60;99.90;;;;;;5077763;27;21004;-67
2022/11/28 08:42:12;;;;;;;9.13;5.87;;;6.60;99.90;;;;;;5089797;27;20202;-67
2022/11/28 08:44:38;;;;;;;11.07;5.90;;;6.60;99.90;;;;;;5085703;27;20558;-66
2022/11/28 08:47:05;;;;;;;9.07;5.73;;;6.60;99.90;;;;;;5067292;28;20842;-67
2022/11/28 08:49:35;;;;;;;8.47;5.87;;;6.60;99.90;;;;;;5055504;27;20208;-67
2022/11/28 08:52:03;;;;;;;10.60;6.07;;;6.60;99.90;;;;;;5074320;27;20209;-67
2022/11/28 08:54:30;;;;;;;10.97;6.17;;;6.60;99.90;;;;;;5073172;28;20201;-67
2022/11/28 08:56:57;;;;;;;8.83;6.17;;;6.60;99.90;;;;;;5082233;28;20231;-67
2022/11/28 08:59:24;;;;;;;10.77;5.93;;;6.60;99.90;;;;;;5083577;27;20480;-67
2022/11/28 09:01:52;;;;;;;11.90;7.30;;;6.60;99.90;;;;;;5066257;27;20203;-67
2022/11/28 09:04:19;;;;;;;10.40;6.20;;;6.70;99.90;;;;;;5054217;28;20210;-68
2022/11/28 09:06:47;;;;;;;9.10;5.83;;;6.70;99.90;;;;;;5080306;28;20192;-66
2022/11/28 09:09:14;;;;;;;9.73;6.10;;;6.70;99.90;;;;;;5073254;27;20215;-66
2022/11/28 09:11:41;;;;;;;8.77;5.53;;;6.70;99.90;;;;;;5075126;27;20207;-67
2022/11/28 09:14:08;;;;;;;8.13;5.47;;;6.70;99.90;;;;;;5082926;28;20201;-67
2022/11/28 09:16:35;;;;;;;12.77;5.60;;;6.70;99.90;;;;;;5073947;28;20243;-67
2022/11/28 09:19:02;;;;;;;11.83;5.77;;;6.70;99.90;;;;;;5058528;27;20224;-67
2022/11/28 09:21:29;;;;;;;7.60;5.23;;;6.70;99.90;;;;;;5083502;28;21035;-67
2022/11/28 09:23:57;;;;;;;8.53;5.40;;;6.70;99.90;;;;;;5073142;28;20671;-66
2022/11/28 09:26:25;;;;;;;10.57;5.97;;;6.70;99.90;;;;;;5073439;28;20202;-67
2022/11/28 09:28:52;;;;;;;7.70;5.50;;;6.70;99.90;;;;;;5083875;27;20195;-68
2022/11/28 09:31:20;;;;;;;8.83;5.33;;;6.70;99.90;;;;;;5087363;27;20203;-67
2022/11/28 09:33:48;;;;;;;6.27;4.73;;;6.70;99.90;;;;;;5072889;27;20204;-67
2022/11/28 09:36:16;;;;;;;8.30;5.30;;;6.70;99.90;;;;;;5056092;28;20222;-67
2022/11/28 09:38:44;;;;;;;9.60;5.77;;;6.70;99.90;;;;;;5070581;28;20593;-67
2022/11/28 09:41:44;;;;;;;8.00;5.37;;;6.80;99.90;;;;;;5072392;28;20202;-67
2022/11/28 09:44:18;;;;;;;8.17;5.40;;;6.70;99.90;;;;;;5083837;28;20202;-67
2022/11/28 09:46:46;;;;;;;10.33;6.73;;;6.70;99.90;;;;;;5079747;28;20221;-66
2022/11/28 09:49:25;;;;;;;7.90;5.27;;;6.70;99.90;;;;;;5068650;28;20311;-66
2022/11/28 09:51:56;;;;;;;10.13;5.33;;;6.70;99.90;;;;;;5054413;28;20233;-66
2022/11/28 09:54:33;;;;;;;7.97;5.37;;;6.70;99.90;;;;;;5076012;28;20226;-67
2022/11/28 09:57:01;;;;;;;10.47;5.13;;;6.80;99.90;;;;;;5073680;28;20249;-65
2022/11/28 09:59:30;;;;;;;9.10;5.27;;;6.70;99.90;;;;;;5079130;28;20219;-66
2022/11/28 10:02:10;;;;;;;10.23;5.43;;;6.70;99.90;;;;;;5084982;28;20217;-66
2022/11/28 10:04:41;;;;;;;8.33;5.40;;;6.80;99.90;;;;;;5076209;28;20934;-66
2022/11/28 10:07:19;;;;;;;9.60;5.53;;;6.70;99.90;;;;;;5047873;28;20230;-67
2022/11/28 10:09:56;;;;;;;8.97;5.47;;;6.70;99.90;;;;;;5072854;28;20230;-68
2022/11/28 10:12:37;;;;;;;8.27;5.40;;;6.70;99.90;;;;;;5072564;28;20671;-68
2022/11/28 10:15:16;;;;;;;8.30;5.43;;;6.70;99.90;;;;;;5083687;28;20202;-67
2022/11/28 10:17:55;;;;;;;7.33;4.87;;;6.70;99.90;;;;;;5084999;28;20239;-68
2022/11/28 10:20:25;;;;;;;10.83;5.10;;;6.70;99.90;;;;;;5049899;28;20215;-67
2022/11/28 10:22:56;;;;;;;7.53;5.17;;;6.70;99.90;;;;;;5076275;28;20277;-67
2022/11/28 10:25:29;;;;;;;9.37;5.77;;;6.70;99.90;;;;;;5072004;28;20241;-68
2022/11/28 10:27:56;;;;;;;8.50;5.77;;;6.70;99.90;;;;;;5083223;28;20206;-67
2022/11/28 10:30:27;;;;;;;12.50;7.00;;;6.70;99.90;;;;;;5069688;28;20207;-68
2022/11/28 10:33:01;;;;;;;15.17;8.77;;;6.70;99.90;;;;;;5082569;28;20206;-67
2022/11/28 10:35:35;;;;;;;9.47;6.60;;;6.70;99.90;;;;;;5054012;28;20548;-68
2022/11/28 10:38:02;;;;;;;7.37;5.60;;;6.80;99.90;;;;;;5083805;28;20226;-67
2022/11/28 10:40:38;;;;;;;11.03;7.23;;;6.80;99.90;;;;;;5070396;28;20693;-67
2022/11/28 10:43:12;;;;;;;10.87;5.87;;;6.80;99.90;;;;;;5082017;28;20202;-67
2022/11/28 10:45:48;;;;;;;9.67;6.30;;;6.80;99.90;;;;;;5070744;28;20204;-68
2022/11/28 10:48:27;;;;;;;10.57;6.40;;;6.80;99.90;;;;;;5085358;28;20194;-67
2022/11/28 10:51:02;;;;;;;6.97;5.10;;;6.80;99.90;;;;;;5086691;28;20199;-67
2022/11/28 10:53:40;;;;;;;9.57;6.23;;;6.80;99.90;;;;;;5052593;28;20214;-67
2022/11/28 10:56:14;;;;;;;8.57;6.23;;;6.80;99.90;;;;;;5086328;28;20561;-67
2022/11/28 10:58:50;;;;;;;7.53;5.70;;;6.80;99.90;;;;;;5077342;28;20232;-67
2022/11/28 11:01:18;;;;;;;7.80;5.43;;;6.80;99.90;;;;;;5075332;28;20680;-67
2022/11/28 11:03:45;;;;;;;10.30;6.53;;;6.90;99.90;;;;;;5085438;27;20209;-67
2022/11/28 11:06:13;;;;;;;14.07;8.47;;;6.90;99.90;;;;;;5079729;27;20223;-68
2022/11/28 11:08:40;;;;;;;18.43;10.50;;;6.90;99.90;;;;;;5066000;27;20199;-67
2022/11/28 11:11:17;;;;;;;13.70;9.53;;;6.90;99.90;;;;;;5080657;27;20237;-67
2022/11/28 11:13:58;;;;;;;11.50;9.10;;;6.90;99.90;;;;;;5081505;27;20203;-67
2022/11/28 11:16:26;;;;;;;10.93;8.70;;;6.90;99.90;;;;;;5074346;27;20226;-67
2022/11/28 11:18:55;;;;;;;16.27;8.27;;;7.00;99.90;;;;;;5085804;27;20202;-67
2022/11/28 11:21:24;;;;;;;9.80;6.57;;;6.90;99.90;;;;;;5082495;27;20195;-67
2022/11/28 11:24:11;;;;;;;8.80;6.20;;;6.90;99.90;;;;;;5058694;27;20213;-67
2022/11/28 11:26:40;;;;;;;6.63;5.63;;;7.00;99.90;;;;;;5083590;27;20204;-67
2022/11/28 11:29:20;;;;;;;9.47;6.23;;;7.00;99.90;;;;;;5075856;27;20778;-67
2022/11/28 11:31:52;;;;;;;10.87;6.10;;;7.00;99.90;;;;;;5075445;27;20203;-67
2022/11/28 11:34:21;;;;;;;11.27;6.60;;;7.00;99.90;;;;;;5066569;27;20208;-67
2022/11/28 11:36:49;;;;;;;9.13;6.80;;;7.00;99.90;;;;;;5086691;27;20223;-67
2022/11/28 11:39:20;;;;;;;12.13;8.67;;;7.10;99.90;;;;;;5045728;27;20677;-68
2022/11/28 11:41:49;;;;;;;10.40;6.97;;;7.00;99.90;;;;;;5083455;27;20201;-68
2022/11/28 11:44:29;;;;;;;10.87;7.23;;;7.00;99.90;;;;;;5074165;27;20236;-68
2022/11/28 11:47:00;;;;;;;9.37;5.80;;;7.10;99.90;;;;;;5072322;27;20209;-67
2022/11/28 11:49:32;;;;;;;10.33;6.27;;;7.10;99.90;;;;;;5090127;27;20566;-68
2022/11/28 11:52:01;;;;;;;13.73;6.47;;;7.10;99.90;;;;;;5086050;28;20203;-67
2022/11/28 11:54:28;;;;;;;11.77;6.17;;;7.10;99.90;;;;;;5059436;27;20218;-68
2022/11/28 11:56:56;;;;;;;16.73;6.97;;;7.10;99.90;;;;;;5077315;28;20219;-67
2022/11/28 11:59:28;;;;;;;11.80;6.80;;;7.10;99.90;;;;;;5075318;27;20231;-67
2022/11/28 12:02:00;;;;;;;13.67;7.03;;;7.10;99.90;;;;;;5070504;27;20199;-67
2022/11/28 12:04:32;;;;;;;9.30;6.03;;;7.10;99.90;;;;;;5087299;27;20232;-67
2022/11/28 12:07:02;;;;;;;7.43;5.83;;;7.10;99.90;;;;;;5088138;27;20203;-67
2022/11/28 12:09:36;;;;;;;8.00;6.03;;;7.10;99.90;;;;;;5060403;27;20207;-67
2022/11/28 12:12:11;;;;;;;10.00;5.43;;;7.10;99.90;;;;;;5078510;27;20191;-67
2022/11/28 12:14:38;;;;;;;13.77;8.43;;;7.10;99.90;;;;;;5076244;27;20208;-66
2022/11/28 12:17:25;;;;;;;20.20;12.20;;;7.10;99.90;;;;;;5068373;27;23829;-67
2022/11/28 12:20:06;;;;;;;12.53;7.77;;;7.10;99.90;;;;;;5090012;27;20200;-67
2022/11/28 12:22:41;;;;;;;9.67;7.13;;;7.10;99.90;;;;;;5088361;28;20199;-67
2022/11/28 12:25:15;;;;;;;9.37;7.07;;;7.00;99.90;;;;;;5059899;27;20307;-67
2022/11/28 12:28:05;;;;;;;8.90;6.67;;;7.10;99.90;;;;;;5082330;27;20730;-68
2022/11/28 12:30:46;;;;;;;8.10;5.27;;;7.10;99.90;;;;;;5071482;27;20238;-67
2022/11/28 12:33:35;;;;;;;7.63;5.10;;;7.10;99.90;;;;;;5071036;27;20226;-66
2022/11/28 12:36:12;;;;;;;7.90;5.53;;;7.00;99.90;;;;;;5078758;28;20354;-66
2022/11/28 12:39:07;;;;;;;8.73;5.40;;;7.00;99.90;;;;;;5081024;28;20371;-66
2022/11/28 12:42:01;;;;;;;9.73;5.70;;;7.10;99.90;;;;;;5082025;27;20353;-67
2022/11/28 12:44:39;;;;;;;11.27;5.33;;;7.00;99.90;;;;;;5083296;28;20773;-67
2022/11/28 12:47:17;;;;;;;11.40;6.30;;;7.00;99.90;;;;;;5077030;27;20293;-67
2022/11/28 12:49:57;;;;;;;10.50;5.80;;;7.00;99.90;;;;;;5076736;27;20321;-67
2022/11/28 12:52:34;;;;;;;9.70;5.70;;;7.00;99.90;;;;;;5088913;27;20226;-67
2022/11/28 12:55:14;;;;;;;8.47;5.80;;;7.00;99.90;;;;;;5059355;27;20867;-66
2022/11/28 12:57:46;;;;;;;10.57;6.40;;;7.00;99.90;;;;;;5062565;28;20318;-67
2022/11/28 13:00:18;;;;;;;10.40;5.80;;;7.00;99.90;;;;;;5068775;28;20318;-68
2022/11/28 13:02:55;;;;;;;9.67;5.77;;;7.00;99.90;;;;;;5052468;27;20322;-68
2022/11/28 13:05:54;;;;;;;10.00;5.93;;;6.90;99.90;;;;;;5069881;27;20260;-67
2022/11/28 13:08:44;;;;;;;9.30;6.30;;;6.90;99.90;;;;;;5082472;27;20280;-68
2022/11/28 13:11:26;;;;;;;9.23;5.93;;;6.90;99.90;;;;;;5059483;28;20302;-67
2022/11/28 13:13:58;;;;;;;10.03;6.00;;;6.90;99.90;;;;;;5086667;27;20215;-67
2022/11/28 13:16:34;;;;;;;12.53;6.47;;;6.90;99.90;;;;;;5084134;27;20230;-68